createdAt,value
2019-03-16T00:00:22.270Z,95.94
2019-03-16T00:01:22.174Z,96.50
2019-03-16T00:02:22.087Z,96.60
2019-03-16T00:03:22.042Z,96.03
2019-03-16T00:04:21.967Z,96.31
2019-03-16T00:05:22.002Z,95.27
2019-03-16T00:06:21.835Z,96.03
2019-03-16T00:07:32.528Z,95.94
2019-03-16T00:08:21.770Z,96.98
2019-03-16T00:09:21.686Z,96.03
2019-03-16T00:10:21.622Z,96.12
2019-03-16T00:11:21.623Z,96.65
2019-03-16T00:12:21.645Z,96.08
2019-03-16T00:13:21.505Z,96.36
2019-03-16T00:14:21.419Z,96.36
2019-03-16T00:15:21.369Z,96.50
2019-03-16T00:16:21.321Z,96.22
2019-03-16T00:17:23.605Z,96.50
2019-03-16T00:18:21.243Z,95.84
2019-03-16T00:19:21.168Z,96.41
2019-03-16T00:20:21.092Z,95.84
2019-03-16T00:21:21.092Z,95.94
2019-03-16T00:22:20.965Z,95.94
2019-03-16T00:23:20.931Z,95.75
2019-03-16T00:24:20.863Z,96.03
2019-03-16T00:25:20.864Z,96.03
2019-03-16T00:26:20.810Z,96.41
2019-03-16T00:27:20.698Z,95.84
2019-03-16T00:28:20.634Z,95.65
2019-03-16T00:29:20.587Z,95.94
2019-03-16T00:30:20.564Z,96.12
2019-03-16T00:31:20.524Z,95.65
2019-03-16T00:32:20.416Z,96.26
2019-03-16T00:33:20.369Z,95.84
2019-03-16T00:34:20.346Z,96.31
2019-03-16T00:35:20.248Z,96.84
2019-03-16T00:36:20.226Z,96.55
2019-03-16T00:37:20.162Z,96.45
2019-03-16T00:38:23.263Z,95.98
2019-03-16T00:39:20.055Z,96.17
2019-03-16T00:40:19.985Z,95.98
2019-03-16T00:41:19.954Z,95.98
2019-03-16T00:42:19.907Z,96.36
2019-03-16T00:43:19.812Z,95.98
2019-03-16T00:44:19.763Z,95.65
2019-03-16T00:45:19.791Z,95.89
2019-03-16T00:46:19.770Z,95.89
2019-03-16T00:47:19.638Z,96.17
2019-03-16T00:48:19.604Z,95.60
2019-03-16T00:49:19.524Z,95.41
2019-03-16T00:50:19.431Z,95.79
2019-03-16T00:51:19.444Z,95.89
2019-03-16T00:52:19.331Z,96.22
2019-03-16T00:53:19.297Z,95.98
2019-03-16T00:54:19.220Z,95.56
2019-03-16T00:55:19.169Z,95.46
2019-03-16T00:56:19.136Z,95.70
2019-03-16T00:57:19.101Z,95.75
2019-03-16T00:58:19.008Z,96.03
2019-03-16T00:59:19.056Z,95.79
2019-03-16T01:00:18.953Z,95.79
2019-03-16T01:01:18.866Z,95.51
2019-03-16T01:02:27.027Z,95.79
2019-03-16T01:03:18.727Z,95.60
2019-03-16T01:04:18.710Z,95.60
2019-03-16T01:05:18.611Z,95.51
2019-03-16T01:06:18.721Z,95.70
2019-03-16T01:07:18.511Z,95.32
2019-03-16T01:08:18.460Z,96.03
2019-03-16T01:09:18.409Z,95.70
2019-03-16T01:10:18.357Z,95.89
2019-03-16T01:11:18.387Z,95.98
2019-03-16T01:12:18.243Z,96.41
2019-03-16T01:13:18.175Z,96.55
2019-03-16T01:14:18.123Z,96.55
2019-03-16T01:15:18.069Z,96.74
2019-03-16T01:16:18.043Z,96.17
2019-03-16T01:17:17.968Z,96.45
2019-03-16T01:18:17.893Z,96.45
2019-03-16T01:19:17.845Z,95.98
2019-03-16T01:20:17.821Z,96.17
2019-03-16T01:21:17.766Z,95.98
2019-03-16T01:22:17.741Z,96.17
2019-03-16T01:23:17.985Z,96.17
2019-03-16T01:24:17.583Z,96.08
2019-03-16T01:25:17.520Z,96.36
2019-03-16T01:26:17.506Z,96.36
2019-03-16T01:27:17.398Z,96.45
2019-03-16T01:28:17.358Z,96.74
2019-03-16T01:29:17.304Z,96.36
2019-03-16T01:30:17.322Z,96.08
2019-03-16T01:31:17.210Z,96.55
2019-03-16T01:32:17.207Z,95.98
2019-03-16T01:33:17.148Z,95.51
2019-03-16T01:34:17.027Z,96.36
2019-03-16T01:35:16.978Z,96.17
2019-03-16T01:36:16.918Z,95.79
2019-03-16T01:37:16.907Z,95.32
2019-03-16T01:38:16.839Z,96.26
2019-03-16T01:39:16.769Z,96.17
2019-03-16T01:40:16.693Z,95.98
2019-03-16T01:41:16.636Z,95.70
2019-03-16T01:42:16.684Z,96.26
2019-03-16T01:43:16.533Z,95.98
2019-03-16T01:44:16.473Z,96.26
2019-03-16T01:45:16.440Z,96.26
2019-03-16T01:46:16.454Z,97.12
2019-03-16T01:47:16.339Z,96.45
2019-03-16T01:48:16.326Z,97.31
2019-03-16T01:49:16.230Z,97.03
2019-03-16T01:50:16.159Z,97.50
2019-03-16T01:51:16.093Z,96.93
2019-03-16T01:52:16.178Z,96.84
2019-03-16T01:53:16.219Z,97.31
2019-03-16T01:54:15.921Z,96.55
2019-03-16T01:55:15.886Z,97.31
2019-03-16T01:56:15.832Z,97.41
2019-03-16T01:57:15.789Z,97.12
2019-03-16T01:58:15.721Z,97.31
2019-03-16T01:59:15.695Z,97.31
2019-03-16T02:00:15.697Z,96.93
2019-03-16T02:01:15.809Z,97.60
2019-03-16T02:02:15.536Z,97.12
2019-03-16T02:03:15.447Z,97.41
2019-03-16T02:04:15.433Z,97.50
2019-03-16T02:05:15.347Z,97.31
2019-03-16T02:06:15.288Z,97.31
2019-03-16T02:07:15.280Z,96.93
2019-03-16T02:08:15.191Z,97.31
2019-03-16T02:09:15.187Z,97.12
2019-03-16T02:10:15.103Z,97.41
2019-03-16T02:11:15.012Z,96.84
2019-03-16T02:12:15.001Z,97.41
2019-03-16T02:13:14.916Z,97.22
2019-03-16T02:14:14.872Z,97.50
2019-03-16T02:15:14.786Z,97.69
2019-03-16T02:16:14.772Z,98.07
2019-03-16T02:17:14.693Z,97.31
2019-03-16T02:18:14.637Z,97.60
2019-03-16T02:19:14.651Z,97.50
2019-03-16T02:20:14.542Z,97.31
2019-03-16T02:21:14.495Z,97.31
2019-03-16T02:22:14.520Z,97.50
2019-03-16T02:23:14.357Z,97.03
2019-03-16T02:24:14.293Z,97.03
2019-03-16T02:25:14.366Z,97.50
2019-03-16T02:26:14.181Z,97.31
2019-03-16T02:27:14.171Z,97.12
2019-03-16T02:28:14.129Z,97.50
2019-03-16T02:29:14.048Z,97.31
2019-03-16T02:30:13.987Z,97.88
2019-03-16T02:31:13.969Z,97.78
2019-03-16T02:32:13.914Z,97.22
2019-03-16T02:33:13.976Z,97.31
2019-03-16T02:34:13.750Z,97.31
2019-03-16T02:35:13.693Z,97.69
2019-03-16T02:36:13.693Z,97.12
2019-03-16T02:37:13.633Z,97.97
2019-03-16T02:38:13.539Z,97.78
2019-03-16T02:39:13.556Z,97.31
2019-03-16T02:40:13.489Z,97.60
2019-03-16T02:41:13.379Z,97.22
2019-03-16T02:42:13.395Z,97.22
2019-03-16T02:43:13.286Z,96.93
2019-03-16T02:44:13.205Z,97.22
2019-03-16T02:45:13.171Z,97.41
2019-03-16T02:46:13.107Z,97.31
2019-03-16T02:47:13.111Z,97.78
2019-03-16T02:48:12.999Z,98.36
2019-03-16T02:49:12.924Z,97.22
2019-03-16T02:50:12.885Z,97.22
2019-03-16T02:51:12.834Z,96.84
2019-03-16T02:52:12.776Z,97.50
2019-03-16T02:53:12.751Z,97.50
2019-03-16T02:54:12.669Z,97.31
2019-03-16T02:55:12.637Z,97.31
2019-03-16T02:56:12.572Z,97.31
2019-03-16T02:57:12.501Z,97.31
2019-03-16T02:58:12.473Z,97.50
2019-03-16T02:59:12.394Z,97.31
2019-03-16T03:00:12.399Z,97.31
2019-03-16T03:01:12.284Z,97.31
2019-03-16T03:02:12.221Z,97.12
2019-03-16T03:03:28.053Z,97.60
2019-03-16T03:04:12.119Z,97.31
2019-03-16T03:05:12.098Z,97.41
2019-03-16T03:06:12.027Z,97.88
2019-03-16T03:07:11.984Z,97.31
2019-03-16T03:08:11.995Z,97.31
2019-03-16T03:09:11.835Z,97.50
2019-03-16T03:10:11.790Z,97.50
2019-03-16T03:11:11.739Z,97.97
2019-03-16T03:12:11.795Z,97.88
2019-03-16T03:13:13.593Z,97.69
2019-03-16T03:14:11.616Z,97.12
2019-03-16T03:15:11.546Z,97.31
2019-03-16T03:16:11.529Z,97.12
2019-03-16T03:17:11.445Z,96.08
2019-03-16T03:18:11.380Z,96.84
2019-03-16T03:19:11.306Z,97.41
2019-03-16T03:20:11.257Z,96.93
2019-03-16T03:21:11.349Z,97.41
2019-03-16T03:22:11.139Z,97.31
2019-03-16T03:23:11.107Z,97.60
2019-03-16T03:24:11.163Z,97.88
2019-03-16T03:25:11.001Z,97.97
2019-03-16T03:26:10.954Z,97.60
2019-03-16T03:27:10.873Z,97.69
2019-03-16T03:28:10.851Z,97.60
2019-03-16T03:29:10.799Z,97.60
2019-03-16T03:30:10.725Z,98.45
2019-03-16T03:31:10.680Z,98.64
2019-03-16T03:32:10.588Z,98.64
2019-03-16T03:33:10.624Z,99.02
2019-03-16T03:34:10.497Z,98.07
2019-03-16T03:35:10.477Z,97.97
2019-03-16T03:36:10.373Z,99.40
2019-03-16T03:37:10.322Z,98.93
2019-03-16T03:38:10.327Z,99.11
2019-03-16T03:39:10.230Z,98.74
2019-03-16T03:40:10.151Z,99.11
2019-03-16T03:41:10.109Z,98.55
2019-03-16T03:42:10.052Z,98.64
2019-03-16T03:43:10.038Z,98.93
2019-03-16T03:44:09.982Z,98.55
2019-03-16T03:45:09.920Z,98.36
2019-03-16T03:46:09.887Z,98.45
2019-03-16T03:47:09.781Z,98.93
2019-03-16T03:48:09.752Z,98.36
2019-03-16T03:49:09.669Z,99.21
2019-03-16T03:50:09.648Z,98.45
2019-03-16T03:51:09.557Z,98.55
2019-03-16T03:52:09.520Z,98.36
2019-03-16T03:53:09.493Z,98.36
2019-03-16T03:54:09.391Z,97.88
2019-03-16T03:55:09.382Z,99.30
2019-03-16T03:56:09.295Z,97.97
2019-03-16T03:57:09.248Z,98.26
2019-03-16T03:58:09.211Z,98.55
2019-03-16T03:59:09.159Z,97.78
2019-03-16T04:00:09.072Z,98.26
2019-03-16T04:01:09.022Z,99.21
2019-03-16T04:02:08.963Z,98.64
2019-03-16T04:03:08.936Z,98.55
2019-03-16T04:04:15.558Z,98.26
2019-03-16T04:05:08.802Z,98.45
2019-03-16T04:06:08.800Z,97.78
2019-03-16T04:07:08.730Z,97.78
2019-03-16T04:08:08.666Z,97.97
2019-03-16T04:09:08.571Z,98.26
2019-03-16T04:10:08.536Z,97.50
2019-03-16T04:11:08.543Z,98.45
2019-03-16T04:12:08.447Z,98.07
2019-03-16T04:13:08.423Z,98.74
2019-03-16T04:14:08.306Z,98.17
2019-03-16T04:15:08.292Z,97.97
2019-03-16T04:16:08.224Z,98.55
2019-03-16T04:17:08.226Z,98.26
2019-03-16T04:18:08.126Z,98.17
2019-03-16T04:19:08.076Z,98.64
2019-03-16T04:20:07.997Z,98.45
2019-03-16T04:21:07.922Z,98.93
2019-03-16T04:22:07.922Z,98.17
2019-03-16T04:23:07.899Z,98.64
2019-03-16T04:24:07.767Z,99.30
2019-03-16T04:25:07.698Z,98.93
2019-03-16T04:26:07.682Z,99.21
2019-03-16T04:27:15.995Z,99.02
2019-03-16T04:28:07.573Z,99.02
2019-03-16T04:29:07.514Z,98.64
2019-03-16T04:30:07.488Z,98.55
2019-03-16T04:31:07.402Z,99.11
2019-03-16T04:32:07.320Z,99.02
2019-03-16T04:33:07.325Z,99.21
2019-03-16T04:34:07.239Z,99.11
2019-03-16T04:35:07.188Z,99.69
2019-03-16T04:36:07.181Z,99.30
2019-03-16T04:37:07.068Z,99.78
2019-03-16T04:38:07.019Z,99.99
2019-03-16T04:39:06.993Z,99.99
2019-03-16T04:40:06.894Z,98.74
2019-03-16T04:41:06.901Z,97.31
2019-03-16T04:42:06.779Z,97.60
2019-03-16T04:43:06.742Z,98.26
2019-03-16T04:44:06.706Z,97.97
2019-03-16T04:45:06.658Z,98.40
2019-03-16T04:46:06.564Z,98.79
2019-03-16T04:47:06.515Z,98.88
2019-03-16T04:48:06.454Z,99.16
2019-03-16T04:49:06.419Z,99.73
2019-03-16T04:50:06.357Z,99.99
2019-03-16T04:51:06.288Z,99.99
2019-03-16T04:52:06.229Z,99.83
2019-03-16T04:53:06.191Z,99.99
2019-03-16T04:54:06.167Z,99.99
2019-03-16T04:55:06.083Z,99.99
2019-03-16T04:56:06.019Z,99.99
2019-03-16T04:57:05.971Z,99.99
2019-03-16T04:58:05.913Z,99.99
2019-03-16T04:59:05.878Z,99.99
2019-03-16T05:00:05.789Z,99.99
2019-03-16T05:01:05.744Z,99.99
2019-03-16T05:02:05.729Z,99.99
2019-03-16T05:03:08.177Z,99.73
2019-03-16T05:04:05.620Z,99.99
2019-03-16T05:05:05.521Z,99.99
2019-03-16T05:06:05.474Z,99.99
2019-03-16T05:07:05.421Z,99.99
2019-03-16T05:08:05.363Z,99.99
2019-03-16T05:09:05.337Z,99.99
2019-03-16T05:10:07.251Z,99.99
2019-03-16T05:11:05.193Z,99.99
2019-03-16T05:12:05.147Z,99.99
2019-03-16T05:13:05.067Z,99.99
2019-03-16T05:14:05.098Z,99.99
2019-03-16T05:15:04.987Z,99.99
2019-03-16T05:16:04.923Z,99.99
2019-03-16T05:17:04.853Z,99.99
2019-03-16T05:18:04.787Z,99.99
2019-03-16T05:19:04.773Z,99.99
2019-03-16T05:20:04.689Z,99.99
2019-03-16T05:21:04.645Z,99.99
2019-03-16T05:22:05.090Z,99.99
2019-03-16T05:23:04.510Z,99.99
2019-03-16T05:24:04.479Z,99.99
2019-03-16T05:25:04.426Z,99.99
2019-03-16T05:26:04.360Z,99.99
2019-03-16T05:27:04.293Z,99.99
2019-03-16T05:28:04.237Z,99.99
2019-03-16T05:29:04.259Z,99.99
2019-03-16T05:30:04.143Z,99.99
2019-03-16T05:31:04.062Z,99.99
2019-03-16T05:32:04.030Z,99.99
2019-03-16T05:33:03.964Z,99.99
2019-03-16T05:34:03.962Z,99.99
2019-03-16T05:35:03.899Z,99.99
2019-03-16T05:36:03.839Z,99.99
2019-03-16T05:37:03.746Z,99.99
2019-03-16T05:38:03.679Z,99.99
2019-03-16T05:39:03.632Z,99.99
2019-03-16T05:40:03.623Z,99.99
2019-03-16T05:41:03.505Z,99.99
2019-03-16T05:42:05.191Z,99.99
2019-03-16T05:43:03.914Z,99.99
2019-03-16T05:44:03.365Z,99.91
2019-03-16T05:45:03.347Z,99.99
2019-03-16T05:46:03.242Z,99.99
2019-03-16T05:47:03.184Z,99.99
2019-03-16T05:48:03.309Z,99.99
2019-03-16T05:49:03.061Z,99.99
2019-03-16T05:50:03.042Z,99.99
2019-03-16T05:51:02.959Z,99.91
2019-03-16T05:52:02.931Z,99.99
2019-03-16T05:53:02.829Z,99.44
2019-03-16T05:54:02.792Z,98.59
2019-03-16T05:55:02.746Z,98.49
2019-03-16T05:56:02.664Z,97.92
2019-03-16T05:57:02.645Z,97.83
2019-03-16T05:58:02.557Z,97.17
2019-03-16T05:59:02.497Z,97.17
2019-03-16T06:00:02.491Z,98.59
2019-03-16T06:01:02.388Z,98.30
2019-03-16T06:02:02.332Z,98.21
2019-03-16T06:03:02.274Z,97.45
2019-03-16T06:04:02.227Z,97.83
2019-03-16T06:05:10.349Z,97.17
2019-03-16T06:06:02.103Z,97.36
2019-03-16T06:07:02.062Z,97.26
2019-03-16T06:08:02.002Z,97.17
2019-03-16T06:09:01.938Z,97.36
2019-03-16T06:10:01.903Z,96.97
2019-03-16T06:11:01.837Z,97.55
2019-03-16T06:12:01.910Z,97.26
2019-03-16T06:13:01.743Z,98.11
2019-03-16T06:14:01.660Z,97.83
2019-03-16T06:15:01.630Z,97.45
2019-03-16T06:16:01.562Z,97.55
2019-03-16T06:17:01.592Z,97.55
2019-03-16T06:18:01.436Z,97.83
2019-03-16T06:19:01.385Z,97.55
2019-03-16T06:20:01.348Z,97.64
2019-03-16T06:21:01.266Z,96.78
2019-03-16T06:22:01.226Z,96.78
2019-03-16T06:23:01.154Z,96.78
2019-03-16T06:24:01.103Z,96.59
2019-03-16T06:25:01.165Z,96.78
2019-03-16T06:26:01.061Z,96.78
2019-03-16T06:27:00.945Z,96.88
2019-03-16T06:28:00.891Z,97.07
2019-03-16T06:29:00.828Z,97.07
2019-03-16T06:30:00.805Z,96.88
2019-03-16T06:31:00.722Z,96.88
2019-03-16T06:32:00.652Z,96.41
2019-03-16T06:33:00.611Z,96.59
2019-03-16T06:34:00.545Z,96.41
2019-03-16T06:35:00.526Z,96.50
2019-03-16T06:36:00.445Z,96.88
2019-03-16T06:37:00.407Z,96.03
2019-03-16T06:38:00.442Z,95.46
2019-03-16T06:39:00.257Z,95.07
2019-03-16T06:40:00.469Z,94.98
2019-03-16T06:41:00.342Z,94.98
2019-03-16T06:42:00.227Z,94.60
2019-03-16T06:43:00.058Z,93.84
2019-03-16T06:44:00.381Z,93.84
2019-03-16T06:44:59.985Z,93.18
2019-03-16T06:45:59.907Z,92.71
2019-03-16T06:46:59.830Z,93.18
2019-03-16T06:47:59.780Z,92.52
2019-03-16T06:48:59.713Z,93.08
2019-03-16T06:49:59.696Z,92.09
2019-03-16T06:51:00.282Z,92.28
2019-03-16T06:51:59.565Z,92.75
2019-03-16T06:52:59.508Z,92.56
2019-03-16T06:53:59.438Z,92.37
2019-03-16T06:54:59.395Z,91.80
2019-03-16T06:55:59.322Z,91.80
2019-03-16T06:56:59.273Z,91.42
2019-03-16T06:57:59.210Z,90.76
2019-03-16T06:58:59.181Z,91.14
2019-03-16T06:59:59.123Z,91.04
2019-03-16T07:00:59.102Z,90.38
2019-03-16T07:01:59.021Z,90.66
2019-03-16T07:02:58.931Z,90.47
2019-03-16T07:03:58.867Z,90.09
2019-03-16T07:04:58.916Z,90.28
2019-03-16T07:05:58.794Z,90.38
2019-03-16T07:06:58.721Z,90.66
2019-03-16T07:07:58.658Z,90.09
2019-03-16T07:08:58.814Z,90.00
2019-03-16T07:09:58.574Z,90.09
2019-03-16T07:10:58.517Z,89.24
2019-03-16T07:11:58.433Z,90.00
2019-03-16T07:12:58.382Z,89.90
2019-03-16T07:13:58.337Z,90.19
2019-03-16T07:14:58.275Z,89.33
2019-03-16T07:15:58.254Z,89.53
2019-03-16T07:17:02.347Z,89.05
2019-03-16T07:17:58.131Z,89.33
2019-03-16T07:18:58.906Z,89.14
2019-03-16T07:19:58.001Z,89.14
2019-03-16T07:20:58.382Z,89.33
2019-03-16T07:21:57.885Z,89.14
2019-03-16T07:22:57.827Z,89.05
2019-03-16T07:23:57.834Z,89.33
2019-03-16T07:24:57.718Z,89.14
2019-03-16T07:25:57.786Z,89.14
2019-03-16T07:26:57.599Z,88.39
2019-03-16T07:27:57.552Z,88.29
2019-03-16T07:28:57.506Z,89.05
2019-03-16T07:29:57.435Z,89.43
2019-03-16T07:30:57.404Z,88.39
2019-03-16T07:31:57.332Z,88.48
2019-03-16T07:32:57.296Z,88.29
2019-03-16T07:33:57.205Z,88.67
2019-03-16T07:34:57.161Z,88.86
2019-03-16T07:35:57.128Z,88.48
2019-03-16T07:36:57.058Z,88.29
2019-03-16T07:37:57.153Z,88.39
2019-03-16T07:38:57.014Z,88.48
2019-03-16T07:39:56.960Z,88.67
2019-03-16T07:40:56.853Z,88.48
2019-03-16T07:41:56.777Z,88.39
2019-03-16T07:42:56.716Z,88.20
2019-03-16T07:43:56.669Z,88.57
2019-03-16T07:45:07.631Z,88.48
2019-03-16T07:45:56.608Z,88.57
2019-03-16T07:46:56.505Z,88.29
2019-03-16T07:47:56.490Z,88.20
2019-03-16T07:48:56.402Z,88.20
2019-03-16T07:49:56.351Z,88.29
2019-03-16T07:50:56.324Z,88.57
2019-03-16T07:51:56.229Z,88.20
2019-03-16T07:52:56.190Z,88.29
2019-03-16T07:53:56.130Z,88.29
2019-03-16T07:54:56.061Z,88.29
2019-03-16T07:55:56.038Z,88.29
2019-03-16T07:56:55.969Z,88.39
2019-03-16T07:57:55.911Z,88.29
2019-03-16T07:58:55.857Z,88.48
2019-03-16T07:59:55.794Z,88.20
2019-03-16T08:00:55.767Z,87.82
2019-03-16T08:01:55.671Z,87.82
2019-03-16T08:02:55.627Z,87.91
2019-03-16T08:03:55.603Z,87.53
2019-03-16T08:04:55.509Z,87.82
2019-03-16T08:05:55.478Z,87.53
2019-03-16T08:06:55.400Z,87.82
2019-03-16T08:07:55.354Z,87.91
2019-03-16T08:08:55.290Z,87.82
2019-03-16T08:09:55.221Z,87.82
2019-03-16T08:10:55.208Z,87.91
2019-03-16T08:11:55.133Z,87.72
2019-03-16T08:12:55.070Z,87.91
2019-03-16T08:13:55.021Z,87.91
2019-03-16T08:14:55.032Z,87.91
2019-03-16T08:15:54.969Z,87.91
2019-03-16T08:16:54.864Z,87.91
2019-03-16T08:17:54.800Z,88.39
2019-03-16T08:18:54.750Z,88.10
2019-03-16T08:19:54.704Z,88.01
2019-03-16T08:20:54.783Z,88.01
2019-03-16T08:21:54.615Z,88.01
2019-03-16T08:22:54.531Z,88.20
2019-03-16T08:23:54.476Z,88.20
2019-03-16T08:24:54.405Z,87.82
2019-03-16T08:25:54.359Z,87.72
2019-03-16T08:26:54.333Z,87.53
2019-03-16T08:27:54.860Z,87.82
2019-03-16T08:28:54.200Z,87.05
2019-03-16T08:29:54.136Z,87.05
2019-03-16T08:30:56.736Z,87.15
2019-03-16T08:31:54.049Z,87.43
2019-03-16T08:32:53.970Z,86.96
2019-03-16T08:33:53.936Z,87.62
2019-03-16T08:34:53.887Z,86.77
2019-03-16T08:35:53.816Z,86.68
2019-03-16T08:36:53.784Z,86.58
2019-03-16T08:37:53.716Z,86.58
2019-03-16T08:38:53.643Z,86.68
2019-03-16T08:39:53.587Z,86.20
2019-03-16T08:40:53.530Z,85.96
2019-03-16T08:41:53.491Z,86.11
2019-03-16T08:42:53.430Z,86.20
2019-03-16T08:43:53.381Z,86.01
2019-03-16T08:44:53.313Z,85.72
2019-03-16T08:45:53.266Z,85.63
2019-03-16T08:46:53.224Z,85.82
2019-03-16T08:47:53.162Z,85.39
2019-03-16T08:48:53.089Z,85.20
2019-03-16T08:49:53.033Z,85.53
2019-03-16T08:50:52.975Z,85.44
2019-03-16T08:51:52.953Z,85.58
2019-03-16T08:52:53.900Z,85.16
2019-03-16T08:53:52.806Z,84.82
2019-03-16T08:54:52.956Z,84.82
2019-03-16T08:55:52.719Z,84.44
2019-03-16T08:56:52.677Z,84.44
2019-03-16T08:57:52.589Z,84.06
2019-03-16T08:58:52.550Z,83.78
2019-03-16T08:59:52.534Z,83.68
2019-03-16T09:00:52.463Z,83.59
2019-03-16T09:01:52.429Z,83.49
2019-03-16T09:02:52.337Z,82.82
2019-03-16T09:03:52.261Z,83.11
2019-03-16T09:04:52.270Z,82.35
2019-03-16T09:05:52.188Z,82.35
2019-03-16T09:06:53.001Z,82.16
2019-03-16T09:07:52.039Z,81.68
2019-03-16T09:08:52.018Z,81.78
2019-03-16T09:09:51.962Z,81.49
2019-03-16T09:10:51.878Z,81.02
2019-03-16T09:11:51.890Z,81.59
2019-03-16T09:12:55.296Z,80.93
2019-03-16T09:13:51.712Z,80.74
2019-03-16T09:14:51.665Z,80.16
2019-03-16T09:15:51.600Z,79.79
2019-03-16T09:16:51.579Z,79.97
2019-03-16T09:17:51.515Z,79.31
2019-03-16T09:18:51.433Z,79.41
2019-03-16T09:19:51.391Z,79.22
2019-03-16T09:20:51.331Z,78.83
2019-03-16T09:21:51.328Z,79.31
2019-03-16T09:22:51.272Z,78.64
2019-03-16T09:23:51.180Z,78.64
2019-03-16T09:24:51.111Z,78.36
2019-03-16T09:25:51.081Z,78.08
2019-03-16T09:26:51.031Z,78.36
2019-03-16T09:27:50.962Z,77.89
2019-03-16T09:28:59.694Z,77.89
2019-03-16T09:29:50.849Z,78.08
2019-03-16T09:30:50.792Z,78.08
2019-03-16T09:31:50.746Z,77.60
2019-03-16T09:32:50.698Z,77.79
2019-03-16T09:33:50.623Z,76.93
2019-03-16T09:34:50.598Z,77.31
2019-03-16T09:35:50.570Z,77.64
2019-03-16T09:36:50.477Z,76.97
2019-03-16T09:37:50.393Z,76.78
2019-03-16T09:38:50.371Z,77.07
2019-03-16T09:39:50.292Z,76.97
2019-03-16T09:40:50.259Z,76.88
2019-03-16T09:41:50.203Z,76.40
2019-03-16T09:42:50.157Z,76.31
2019-03-16T09:43:50.065Z,75.84
2019-03-16T09:44:50.017Z,76.03
2019-03-16T09:45:49.969Z,76.12
2019-03-16T09:46:49.953Z,75.93
2019-03-16T09:47:49.854Z,75.84
2019-03-16T09:48:49.789Z,75.36
2019-03-16T09:49:49.764Z,75.26
2019-03-16T09:50:49.705Z,74.98
2019-03-16T09:51:49.710Z,74.98
2019-03-16T09:52:49.582Z,74.79
2019-03-16T09:53:49.567Z,74.60
2019-03-16T09:54:49.475Z,74.51
2019-03-16T09:55:49.433Z,74.41
2019-03-16T09:57:00.734Z,74.69
2019-03-16T09:57:49.302Z,73.93
2019-03-16T09:58:49.246Z,74.12
2019-03-16T09:59:49.213Z,74.22
2019-03-16T10:00:49.159Z,74.35
2019-03-16T10:01:49.216Z,74.07
2019-03-16T10:02:49.026Z,73.93
2019-03-16T10:03:48.995Z,73.78
2019-03-16T10:04:48.949Z,73.78
2019-03-16T10:05:48.906Z,73.69
2019-03-16T10:06:48.818Z,73.49
2019-03-16T10:07:48.814Z,73.88
2019-03-16T10:08:48.702Z,73.11
2019-03-16T10:09:48.669Z,73.21
2019-03-16T10:10:48.614Z,72.92
2019-03-16T10:11:48.536Z,72.74
2019-03-16T10:12:48.520Z,72.26
2019-03-16T10:13:48.439Z,72.45
2019-03-16T10:14:48.383Z,72.55
2019-03-16T10:15:48.328Z,71.69
2019-03-16T10:16:48.302Z,72.07
2019-03-16T10:17:48.246Z,72.30
2019-03-16T10:18:48.158Z,71.53
2019-03-16T10:19:48.129Z,71.15
2019-03-16T10:20:48.053Z,71.63
2019-03-16T10:21:48.019Z,71.63
2019-03-16T10:22:47.977Z,71.82
2019-03-16T10:23:47.896Z,71.25
2019-03-16T10:24:47.838Z,71.34
2019-03-16T10:25:47.786Z,70.68
2019-03-16T10:26:47.734Z,70.97
2019-03-16T10:27:47.719Z,70.87
2019-03-16T10:28:47.619Z,70.77
2019-03-16T10:29:47.581Z,70.43
2019-03-16T10:30:47.519Z,70.20
2019-03-16T10:31:47.463Z,70.52
2019-03-16T10:32:47.467Z,70.05
2019-03-16T10:33:47.354Z,70.14
2019-03-16T10:34:47.302Z,69.85
2019-03-16T10:35:47.243Z,70.33
2019-03-16T10:36:47.200Z,70.52
2019-03-16T10:37:47.167Z,70.24
2019-03-16T10:38:47.110Z,70.62
2019-03-16T10:39:47.032Z,70.05
2019-03-16T10:40:46.986Z,69.48
2019-03-16T10:41:46.930Z,70.24
2019-03-16T10:42:46.901Z,69.95
2019-03-16T10:43:46.805Z,69.95
2019-03-16T10:44:46.769Z,69.85
2019-03-16T10:45:46.711Z,69.76
2019-03-16T10:46:46.669Z,69.95
2019-03-16T10:47:46.628Z,70.14
2019-03-16T10:48:46.565Z,69.67
2019-03-16T10:49:46.499Z,69.67
2019-03-16T10:50:46.452Z,70.05
2019-03-16T10:51:46.396Z,69.67
2019-03-16T10:52:46.369Z,70.33
2019-03-16T10:53:46.292Z,70.14
2019-03-16T10:54:46.226Z,70.81
2019-03-16T10:55:46.182Z,70.62
2019-03-16T10:56:46.140Z,70.52
2019-03-16T10:57:46.121Z,70.75
2019-03-16T10:58:56.153Z,70.94
2019-03-16T10:59:45.954Z,70.75
2019-03-16T11:00:45.914Z,70.84
2019-03-16T11:01:45.855Z,71.03
2019-03-16T11:02:45.861Z,71.38
2019-03-16T11:03:45.762Z,71.22
2019-03-16T11:04:45.707Z,71.13
2019-03-16T11:05:45.662Z,71.22
2019-03-16T11:06:45.594Z,71.32
2019-03-16T11:07:45.598Z,72.17
2019-03-16T11:08:45.487Z,71.86
2019-03-16T11:09:45.455Z,71.98
2019-03-16T11:10:45.383Z,71.98
2019-03-16T11:11:45.315Z,71.51
2019-03-16T11:12:45.349Z,71.70
2019-03-16T11:13:45.227Z,71.51
2019-03-16T11:14:45.168Z,71.89
2019-03-16T11:15:45.121Z,71.89
2019-03-16T11:16:45.050Z,71.95
2019-03-16T11:17:45.046Z,72.46
2019-03-16T11:18:44.965Z,72.42
2019-03-16T11:19:44.900Z,72.37
2019-03-16T11:20:44.865Z,72.14
2019-03-16T11:21:44.783Z,72.27
2019-03-16T11:22:44.811Z,72.46
2019-03-16T11:23:44.676Z,72.46
2019-03-16T11:24:44.633Z,72.24
2019-03-16T11:25:44.582Z,72.62
2019-03-16T11:26:44.545Z,71.76
2019-03-16T11:27:44.511Z,72.17
2019-03-16T11:28:44.425Z,71.51
2019-03-16T11:29:44.369Z,71.70
2019-03-16T11:30:44.316Z,72.62
2019-03-16T11:31:44.275Z,72.37
2019-03-16T11:32:44.226Z,71.98
2019-03-16T11:33:44.151Z,72.17
2019-03-16T11:34:44.128Z,72.24
2019-03-16T11:35:44.038Z,72.27
2019-03-16T11:36:43.989Z,71.76
2019-03-16T11:37:43.989Z,72.24
2019-03-16T11:38:43.906Z,72.90
2019-03-16T11:39:43.835Z,72.24
2019-03-16T11:40:43.776Z,72.05
2019-03-16T11:41:43.722Z,71.80
2019-03-16T11:42:43.715Z,71.80
2019-03-16T11:43:43.613Z,71.57
2019-03-16T11:44:43.585Z,72.14
2019-03-16T11:45:43.514Z,71.86
2019-03-16T11:46:43.455Z,72.27
2019-03-16T11:47:43.429Z,71.89
2019-03-16T11:48:43.415Z,71.76
2019-03-16T11:49:43.319Z,71.76
2019-03-16T11:50:43.244Z,71.95
2019-03-16T11:51:43.190Z,71.61
2019-03-16T11:52:43.146Z,71.76
2019-03-16T11:53:43.128Z,71.95
2019-03-16T11:54:43.037Z,72.14
2019-03-16T11:55:42.993Z,71.86
2019-03-16T11:56:42.934Z,71.70
2019-03-16T11:57:42.884Z,71.80
2019-03-16T11:58:42.843Z,72.17
2019-03-16T11:59:42.771Z,72.56
2019-03-16T12:00:42.708Z,72.33
2019-03-16T12:01:42.656Z,71.98
2019-03-16T12:02:42.617Z,71.86
2019-03-16T12:03:42.573Z,71.89
2019-03-16T12:04:42.507Z,72.14
2019-03-16T12:05:42.442Z,71.67
2019-03-16T12:06:42.399Z,71.80
2019-03-16T12:07:42.341Z,71.80
2019-03-16T12:08:42.320Z,71.76
2019-03-16T12:09:42.323Z,71.80
2019-03-16T12:10:42.187Z,71.95
2019-03-16T12:11:42.129Z,71.80
2019-03-16T12:12:42.169Z,71.89
2019-03-16T12:13:43.980Z,71.80
2019-03-16T12:14:41.966Z,71.76
2019-03-16T12:15:41.913Z,71.86
2019-03-16T12:16:41.863Z,73.61
2019-03-16T12:17:41.816Z,74.37
2019-03-16T12:18:41.783Z,73.70
2019-03-16T12:19:41.708Z,73.70
2019-03-16T12:20:41.654Z,73.22
2019-03-16T12:21:41.590Z,73.41
2019-03-16T12:22:41.541Z,73.99
2019-03-16T12:23:41.531Z,74.18
2019-03-16T12:24:41.433Z,74.08
2019-03-16T12:25:41.375Z,74.46
2019-03-16T12:26:41.336Z,75.13
2019-03-16T12:27:41.281Z,76.27
2019-03-16T12:28:41.252Z,77.03
2019-03-16T12:29:41.180Z,77.22
2019-03-16T12:30:41.118Z,76.37
2019-03-16T12:31:41.077Z,76.08
2019-03-16T12:32:41.020Z,76.65
2019-03-16T12:33:40.986Z,77.13
2019-03-16T12:34:40.913Z,78.94
2019-03-16T12:35:40.876Z,78.08
2019-03-16T12:36:40.819Z,78.08
2019-03-16T12:37:40.742Z,78.85
2019-03-16T12:38:40.731Z,78.46
2019-03-16T12:39:40.637Z,77.61
2019-03-16T12:40:40.577Z,78.46
2019-03-16T12:41:40.530Z,78.17
2019-03-16T12:42:40.490Z,78.08
2019-03-16T12:43:40.446Z,77.61
2019-03-16T12:44:40.374Z,77.98
2019-03-16T12:45:40.328Z,78.08
2019-03-16T12:46:40.278Z,77.70
2019-03-16T12:47:40.206Z,77.70
2019-03-16T12:48:40.182Z,79.60
2019-03-16T12:49:40.108Z,78.56
2019-03-16T12:50:40.064Z,79.41
2019-03-16T12:51:40.003Z,79.80